createdAt,value
2017-06-30T00:02:23.826Z,99528
2017-06-30T00:04:52.783Z,99524
2017-06-30T00:07:20.986Z,99524
2017-06-30T00:09:49.987Z,99525
2017-06-30T00:12:18.925Z,99535
2017-06-30T00:14:47.119Z,99537
2017-06-30T00:17:15.361Z,99544
2017-06-30T00:19:43.570Z,99553
2017-06-30T00:22:11.774Z,99553
2017-06-30T00:24:40.771Z,99552
2017-06-30T00:27:09.709Z,99552
2017-06-30T00:29:37.903Z,99554
2017-06-30T00:32:06.143Z,99555
2017-06-30T00:34:34.335Z,99566
2017-06-30T00:37:02.507Z,99568
2017-06-30T00:39:30.700Z,99585
2017-06-30T00:41:58.887Z,99589
2017-06-30T00:44:27.083Z,99586
2017-06-30T00:46:56.067Z,99577
2017-06-30T00:49:24.258Z,99573
2017-06-30T00:51:53.223Z,99570
2017-06-30T00:54:21.436Z,99549
2017-06-30T00:56:50.369Z,99554
2017-06-30T00:59:18.538Z,99548
2017-06-30T01:01:46.792Z,99550
2017-06-30T01:04:14.983Z,99536
2017-06-30T01:06:43.184Z,99541
2017-06-30T01:09:11.419Z,99537
2017-06-30T01:11:39.642Z,99536
2017-06-30T01:14:07.863Z,99536
2017-06-30T01:16:36.065Z,99533
2017-06-30T01:19:04.247Z,99517
2017-06-30T01:21:32.438Z,99517
2017-06-30T01:24:00.678Z,99512
2017-06-30T01:26:28.890Z,99512
2017-06-30T01:28:57.099Z,99523
2017-06-30T01:31:26.077Z,99518
2017-06-30T01:33:54.245Z,99516
2017-06-30T01:36:22.426Z,99517
2017-06-30T01:38:50.647Z,99521
2017-06-30T01:41:18.840Z,99517
2017-06-30T01:43:47.027Z,99496
2017-06-30T01:46:15.243Z,99507
2017-06-30T01:48:44.213Z,99494
2017-06-30T01:51:12.404Z,99500
2017-06-30T01:53:41.387Z,99497
2017-06-30T01:56:09.579Z,99493
2017-06-30T01:58:38.543Z,99491
2017-06-30T02:01:06.789Z,99491
2017-06-30T02:03:34.970Z,99491
2017-06-30T02:06:03.150Z,99486
2017-06-30T02:08:31.381Z,99488
2017-06-30T02:11:00.335Z,99478
2017-06-30T02:13:28.526Z,99483
2017-06-30T02:15:56.725Z,99484
2017-06-30T02:18:25.675Z,99485
2017-06-30T02:20:53.882Z,99471
2017-06-30T02:23:22.889Z,99479
2017-06-30T02:25:51.099Z,99480
2017-06-30T02:28:19.295Z,99479
2017-06-30T02:30:47.511Z,99468
2017-06-30T02:33:16.467Z,99468
2017-06-30T02:35:44.671Z,99477
2017-06-30T02:38:13.651Z,99478
2017-06-30T02:40:41.832Z,99477
2017-06-30T02:43:10.000Z,99487
2017-06-30T02:45:38.226Z,99493
2017-06-30T02:48:06.438Z,99488
2017-06-30T02:50:34.635Z,99490
2017-06-30T02:53:02.843Z,99494
2017-06-30T02:55:31.018Z,99499
2017-06-30T02:57:59.204Z,99504
2017-06-30T03:00:27.429Z,99509
2017-06-30T03:02:55.638Z,99509
2017-06-30T03:05:23.808Z,99505
2017-06-30T03:07:52.020Z,99514
2017-06-30T03:10:20.191Z,99524
2017-06-30T03:12:48.372Z,99529
2017-06-30T03:15:16.588Z,99534
2017-06-30T03:17:45.534Z,99532
2017-06-30T03:20:13.729Z,99532
2017-06-30T03:22:41.929Z,99536
2017-06-30T03:25:10.897Z,99530
2017-06-30T03:27:39.064Z,99539
2017-06-30T03:30:07.266Z,99545
2017-06-30T03:32:35.461Z,99553
2017-06-30T03:35:03.663Z,99566
2017-06-30T03:37:31.894Z,99563
2017-06-30T03:40:00.069Z,99576
2017-06-30T03:42:28.271Z,99565
2017-06-30T03:44:56.491Z,99570
2017-06-30T03:47:24.677Z,99573
2017-06-30T03:49:52.855Z,99566
2017-06-30T03:52:21.056Z,99570
2017-06-30T03:54:49.994Z,99568
2017-06-30T03:57:18.192Z,99565
2017-06-30T03:59:46.383Z,99564
2017-06-30T04:02:14.556Z,99564
2017-06-30T04:04:42.767Z,99556
2017-06-30T04:07:10.953Z,99563
2017-06-30T04:09:39.147Z,99568
2017-06-30T04:12:07.357Z,99568
2017-06-30T04:14:35.540Z,99573
2017-06-30T04:17:07.825Z,99574
2017-06-30T04:19:36.069Z,99565
2017-06-30T04:22:04.233Z,99576
2017-06-30T04:24:32.446Z,99577
2017-06-30T04:27:00.631Z,99579
2017-06-30T04:29:29.592Z,99583
2017-06-30T04:31:57.791Z,99590
2017-06-30T04:34:25.996Z,99583
2017-06-30T04:36:54.214Z,99587
2017-06-30T04:39:22.653Z,99588
2017-06-30T04:41:50.829Z,99586
2017-06-30T04:44:19.022Z,99604
2017-06-30T04:46:47.976Z,99588
2017-06-30T04:49:16.172Z,99589
2017-06-30T04:51:44.374Z,99592
2017-06-30T04:54:12.549Z,99593
2017-06-30T04:56:40.799Z,99585
2017-06-30T04:59:08.970Z,99588
2017-06-30T05:01:37.202Z,99592
2017-06-30T05:04:05.401Z,99587
2017-06-30T05:06:33.564Z,99594
2017-06-30T05:09:01.759Z,99593
2017-06-30T05:11:29.958Z,99597
2017-06-30T05:13:58.966Z,99591
2017-06-30T05:16:27.137Z,99593
2017-06-30T05:18:56.083Z,99590
2017-06-30T05:21:24.268Z,99594
2017-06-30T05:23:52.460Z,99589
2017-06-30T05:26:20.686Z,99587
2017-06-30T05:28:48.876Z,99594
2017-06-30T05:31:17.073Z,99592
2017-06-30T05:33:45.275Z,99599
2017-06-30T05:36:14.211Z,99614
2017-06-30T05:38:42.431Z,99600
2017-06-30T05:41:10.620Z,99606
2017-06-30T05:43:39.594Z,99609
2017-06-30T05:46:07.810Z,99602
2017-06-30T05:48:35.991Z,99602
2017-06-30T05:51:04.218Z,99608
2017-06-30T05:53:32.420Z,99607
2017-06-30T05:56:01.379Z,99602
2017-06-30T05:58:29.588Z,99606
2017-06-30T06:00:58.544Z,99610
2017-06-30T06:03:26.807Z,99609
2017-06-30T06:05:55.006Z,99616
2017-06-30T06:08:23.188Z,99616
2017-06-30T06:10:51.377Z,99618
2017-06-30T06:13:20.346Z,99620
2017-06-30T06:15:48.621Z,99629
2017-06-30T06:18:16.772Z,99625
2017-06-30T06:20:44.941Z,99621
2017-06-30T06:23:13.153Z,99623
2017-06-30T06:25:41.316Z,99631
2017-06-30T06:28:09.564Z,99628
2017-06-30T06:30:37.771Z,99620
2017-06-30T06:33:05.979Z,99621
2017-06-30T06:35:34.178Z,99619
2017-06-30T06:38:02.353Z,99633
2017-06-30T06:40:30.573Z,99622
2017-06-30T06:42:58.737Z,99627
2017-06-30T06:45:26.936Z,99627
2017-06-30T06:47:55.117Z,99626
2017-06-30T06:50:24.106Z,99622
2017-06-30T06:52:53.288Z,99633
2017-06-30T06:55:21.526Z,99632
2017-06-30T06:57:50.535Z,99628
2017-06-30T07:00:18.730Z,99630
2017-06-30T07:02:47.017Z,99631
2017-06-30T07:05:15.314Z,99636
2017-06-30T07:07:44.313Z,99631
2017-06-30T07:10:13.261Z,99633
2017-06-30T07:12:41.467Z,99638
2017-06-30T07:15:10.429Z,99635
2017-06-30T07:17:40.275Z,99636
2017-06-30T07:20:09.246Z,99646
2017-06-30T07:22:37.409Z,99645
2017-06-30T07:25:06.810Z,99646
2017-06-30T07:27:35.011Z,99653
2017-06-30T07:30:03.223Z,99647
2017-06-30T07:32:32.877Z,99639
2017-06-30T07:35:01.578Z,99639
2017-06-30T07:37:29.775Z,99634
2017-06-30T07:39:58.742Z,99636
2017-06-30T07:42:26.974Z,99641
2017-06-30T07:44:55.200Z,99633
2017-06-30T07:47:23.391Z,99634
2017-06-30T07:49:52.396Z,99633
2017-06-30T07:52:20.568Z,99632
2017-06-30T07:54:48.908Z,99631
2017-06-30T07:57:17.077Z,99628
2017-06-30T07:59:45.280Z,99636
2017-06-30T08:02:14.256Z,99637
2017-06-30T08:04:42.464Z,99636
2017-06-30T08:07:11.459Z,99634
2017-06-30T08:09:40.410Z,99636
2017-06-30T08:12:08.596Z,99645
2017-06-30T08:14:36.803Z,99653
2017-06-30T08:17:05.759Z,99659
2017-06-30T08:19:33.986Z,99659
2017-06-30T08:22:02.191Z,99664
2017-06-30T08:24:30.390Z,99672
2017-06-30T08:26:58.622Z,99675
2017-06-30T08:29:26.820Z,99671
2017-06-30T08:31:55.025Z,99672
2017-06-30T08:34:23.223Z,99679
2017-06-30T08:36:52.176Z,99676
2017-06-30T08:39:20.457Z,99680
2017-06-30T08:41:48.639Z,99687
2017-06-30T08:44:16.835Z,99681
2017-06-30T08:46:45.037Z,99691
2017-06-30T08:49:14.274Z,99701
2017-06-30T08:51:42.537Z,99692
2017-06-30T08:54:10.705Z,99694
2017-06-30T08:56:39.711Z,99700
2017-06-30T08:59:07.903Z,99705
2017-06-30T09:01:36.085Z,99702
2017-06-30T09:04:04.291Z,99707
2017-06-30T09:06:32.465Z,99700
2017-06-30T09:09:00.679Z,99707
2017-06-30T09:11:28.868Z,99713
2017-06-30T09:13:57.055Z,99709
2017-06-30T09:16:26.127Z,99703
2017-06-30T09:18:54.325Z,99710
2017-06-30T09:21:22.574Z,99709
2017-06-30T09:23:50.759Z,99708
2017-06-30T09:26:18.929Z,99702
2017-06-30T09:28:47.145Z,99711
2017-06-30T09:31:15.331Z,99713
2017-06-30T09:33:43.533Z,99703
2017-06-30T09:36:12.469Z,99715
2017-06-30T09:38:40.679Z,99709
2017-06-30T09:41:08.879Z,99703
2017-06-30T09:43:37.842Z,99713
2017-06-30T09:46:06.061Z,99713
2017-06-30T09:48:34.228Z,99711
2017-06-30T09:51:03.191Z,99706
2017-06-30T09:53:32.206Z,99706
2017-06-30T09:56:01.147Z,99705
2017-06-30T09:58:29.356Z,99709
2017-06-30T10:00:57.543Z,99711
2017-06-30T10:03:26.523Z,99710
2017-06-30T10:05:54.738Z,99709
2017-06-30T10:08:22.928Z,99712
2017-06-30T10:10:51.165Z,99716
2017-06-30T10:13:20.141Z,99723
2017-06-30T10:15:48.312Z,99714
2017-06-30T10:18:16.512Z,99722
2017-06-30T10:20:45.478Z,99727
2017-06-30T10:23:13.715Z,99733
2017-06-30T10:25:41.918Z,99730
2017-06-30T10:28:10.108Z,99735
2017-06-30T10:30:38.312Z,99745
2017-06-30T10:33:07.266Z,99745
2017-06-30T10:35:35.471Z,99741
2017-06-30T10:38:04.435Z,99747
2017-06-30T10:40:32.596Z,99744
2017-06-30T10:43:00.786Z,99749
2017-06-30T10:45:28.987Z,99753
2017-06-30T10:47:57.992Z,99745
2017-06-30T10:50:26.203Z,99750
2017-06-30T10:52:54.382Z,99752
2017-06-30T10:55:22.598Z,99749
2017-06-30T10:57:50.769Z,99749
2017-06-30T11:00:18.965Z,99743
2017-06-30T11:02:47.917Z,99761
2017-06-30T11:05:16.117Z,99755
2017-06-30T11:07:44.346Z,99758
2017-06-30T11:10:12.516Z,99758
2017-06-30T11:12:40.770Z,99750
2017-06-30T11:15:09.737Z,99751
2017-06-30T11:17:37.944Z,99756
2017-06-30T11:20:06.144Z,99764
2017-06-30T11:22:34.329Z,99763
2017-06-30T11:25:02.526Z,99768
2017-06-30T11:27:30.691Z,99768
2017-06-30T11:29:58.871Z,99779
2017-06-30T11:32:27.075Z,99783
2017-06-30T11:34:56.026Z,99780
2017-06-30T11:37:24.225Z,99791
2017-06-30T11:39:52.426Z,99785
2017-06-30T11:42:21.361Z,99787
2017-06-30T11:44:49.558Z,99786
2017-06-30T11:47:17.747Z,99790
2017-06-30T11:49:45.966Z,99783
2017-06-30T11:52:14.169Z,99796
2017-06-30T11:54:42.355Z,99804
2017-06-30T11:57:10.553Z,99806
2017-06-30T11:59:38.754Z,99804
2017-06-30T12:02:06.970Z,99810
2017-06-30T12:04:35.187Z,99807
2017-06-30T12:07:03.386Z,99808
2017-06-30T12:09:31.560Z,99806
2017-06-30T12:11:59.729Z,99807
2017-06-30T12:14:27.947Z,99809
2017-06-30T12:16:56.124Z,99806
2017-06-30T12:19:24.304Z,99825
2017-06-30T12:21:52.484Z,99829
2017-06-30T12:24:20.652Z,99827
2017-06-30T12:26:48.882Z,99832
2017-06-30T12:29:17.097Z,99829
2017-06-30T12:31:45.269Z,99834
2017-06-30T12:34:13.492Z,99842
2017-06-30T12:36:42.444Z,99838
2017-06-30T12:39:10.659Z,99844
2017-06-30T12:41:39.608Z,99833
2017-06-30T12:44:07.798Z,99842
2017-06-30T12:46:35.988Z,99847
2017-06-30T12:49:04.189Z,99846
2017-06-30T12:51:32.426Z,99845
2017-06-30T12:54:00.602Z,99842
2017-06-30T12:56:28.802Z,99839
2017-06-30T12:58:57.761Z,99837
2017-06-30T13:01:25.944Z,99844
2017-06-30T13:03:54.163Z,99850
2017-06-30T13:06:22.351Z,99848
2017-06-30T13:08:50.535Z,99848
2017-06-30T13:11:18.755Z,99840
2017-06-30T13:13:46.945Z,99841
2017-06-30T13:16:15.958Z,99845
2017-06-30T13:18:44.154Z,99850
2017-06-30T13:21:12.350Z,99854
2017-06-30T13:23:40.541Z,99855
2017-06-30T13:26:08.723Z,99855
2017-06-30T13:28:36.932Z,99852
2017-06-30T13:31:05.139Z,99853
2017-06-30T13:33:33.358Z,99857
2017-06-30T13:36:02.350Z,99854
2017-06-30T13:38:30.538Z,99861
2017-06-30T13:40:58.757Z,99859
2017-06-30T13:43:26.941Z,99860
2017-06-30T13:45:55.113Z,99865
2017-06-30T13:48:23.328Z,99865
2017-06-30T13:50:52.293Z,99864
2017-06-30T13:53:21.294Z,99867
2017-06-30T13:55:50.255Z,99872
2017-06-30T13:58:18.466Z,99879
2017-06-30T14:00:46.707Z,99874
2017-06-30T14:03:14.899Z,99880
2017-06-30T14:05:43.888Z,99875
2017-06-30T14:08:12.057Z,99893
2017-06-30T14:10:40.240Z,99895
2017-06-30T14:13:09.225Z,99891
2017-06-30T14:15:37.411Z,99897
2017-06-30T14:18:06.395Z,99891
2017-06-30T14:20:34.593Z,99900
2017-06-30T14:23:03.530Z,99899
2017-06-30T14:25:31.735Z,99908
2017-06-30T14:27:59.919Z,99905
2017-06-30T14:30:28.130Z,99905
2017-06-30T14:32:56.333Z,99915
2017-06-30T14:35:24.503Z,99910
2017-06-30T14:37:52.700Z,99913
2017-06-30T14:40:20.915Z,99920
2017-06-30T14:42:49.878Z,99913
2017-06-30T14:45:18.074Z,99919
2017-06-30T14:47:47.042Z,99919
2017-06-30T14:50:15.252Z,99904
2017-06-30T14:52:44.214Z,99920
2017-06-30T14:55:12.413Z,99917
2017-06-30T14:57:41.354Z,99921
2017-06-30T15:00:09.528Z,99923
2017-06-30T15:02:37.728Z,99925
2017-06-30T15:05:05.942Z,99929
2017-06-30T15:07:34.177Z,99923
2017-06-30T15:10:02.453Z,99928
2017-06-30T15:12:30.632Z,99931
2017-06-30T15:14:58.839Z,99917
2017-06-30T15:17:27.776Z,99923
2017-06-30T15:19:55.994Z,99918
2017-06-30T15:22:24.225Z,99922
2017-06-30T15:24:53.168Z,99909
2017-06-30T15:27:21.386Z,99922
2017-06-30T15:29:50.340Z,99925
2017-06-30T15:32:18.559Z,99918
2017-06-30T15:34:47.515Z,99924
2017-06-30T15:37:15.699Z,99924
2017-06-30T15:39:43.896Z,99926
2017-06-30T15:42:12.847Z,99919
2017-06-30T15:44:41.064Z,99928
2017-06-30T15:47:10.016Z,99929
2017-06-30T15:49:38.221Z,99923
2017-06-30T15:52:06.408Z,99928
2017-06-30T15:54:34.603Z,99924
2017-06-30T15:57:03.569Z,99915
2017-06-30T15:59:31.841Z,99928
2017-06-30T16:02:00.823Z,99936
2017-06-30T16:04:29.001Z,99931
2017-06-30T16:06:57.220Z,99935
2017-06-30T16:09:25.441Z,99929
2017-06-30T16:11:53.630Z,99937
2017-06-30T16:14:21.843Z,99934
2017-06-30T16:16:50.066Z,99937
2017-06-30T16:19:18.244Z,99939
2017-06-30T16:21:46.467Z,99948
2017-06-30T16:24:14.675Z,99932
2017-06-30T16:26:42.864Z,99946
2017-06-30T16:29:11.079Z,99936
2017-06-30T16:31:39.285Z,99942
2017-06-30T16:34:07.530Z,99952
2017-06-30T16:36:36.482Z,99947
2017-06-30T16:39:04.799Z,99953
2017-06-30T16:41:33.925Z,99951
2017-06-30T16:44:02.101Z,99953
2017-06-30T16:46:30.268Z,99952
2017-06-30T16:48:58.457Z,99947
2017-06-30T16:51:26.640Z,99952
2017-06-30T16:53:54.846Z,99952
2017-06-30T16:56:23.027Z,99946
2017-06-30T17:01:28.480Z,99967
2017-06-30T17:03:56.841Z,99966
2017-06-30T17:06:25.044Z,99962
2017-06-30T17:08:53.234Z,99959
2017-06-30T17:11:21.472Z,99959
2017-06-30T17:13:49.664Z,99961
2017-06-30T17:16:17.913Z,99953
2017-06-30T17:18:46.273Z,99962
2017-06-30T17:21:14.460Z,99959
2017-06-30T17:23:42.676Z,99958
2017-06-30T17:26:10.884Z,99960
2017-06-30T17:28:39.057Z,99959
2017-06-30T17:31:07.289Z,99957
2017-06-30T17:33:35.498Z,99955
2017-06-30T17:36:03.695Z,99953
2017-06-30T17:38:32.690Z,99962
2017-06-30T17:41:00.904Z,99958
2017-06-30T17:43:29.108Z,99960
2017-06-30T17:45:57.273Z,99960
2017-06-30T17:48:25.475Z,99966
2017-06-30T17:50:53.714Z,99959
2017-06-30T17:53:21.885Z,99962
2017-06-30T17:55:51.079Z,99957
2017-06-30T17:58:19.273Z,99956
2017-06-30T18:00:47.472Z,99965
2017-06-30T18:03:15.687Z,99962
2017-06-30T18:05:43.884Z,99972
2017-06-30T18:08:12.110Z,99971
2017-06-30T18:10:40.301Z,99969
2017-06-30T18:13:08.496Z,99964
2017-06-30T18:15:36.686Z,99971
2017-06-30T18:18:04.875Z,99977
2017-06-30T18:20:33.095Z,99969
2017-06-30T18:23:02.046Z,99965
2017-06-30T18:25:30.247Z,99969
2017-06-30T18:27:58.526Z,99968
2017-06-30T18:30:26.887Z,99971
2017-06-30T18:32:55.100Z,99970
2017-06-30T18:35:24.050Z,99972
2017-06-30T18:37:52.318Z,99977
2017-06-30T18:40:20.504Z,99976
2017-06-30T18:42:48.747Z,99985
2017-06-30T18:45:16.977Z,99974
2017-06-30T18:47:45.323Z,99987
2017-06-30T18:50:13.495Z,99987
2017-06-30T18:52:41.700Z,99980
2017-06-30T18:55:10.018Z,99987
2017-06-30T18:57:38.218Z,99989
2017-06-30T19:00:06.414Z,99992
2017-06-30T19:02:34.736Z,99996
2017-06-30T19:05:02.929Z,100007
2017-06-30T19:07:31.093Z,99996
2017-06-30T19:09:59.315Z,100010
2017-06-30T19:12:27.519Z,99997
2017-06-30T19:14:56.473Z,99996
2017-06-30T19:17:24.664Z,100005
2017-06-30T19:19:52.836Z,100003
2017-06-30T19:22:21.060Z,99997
2017-06-30T19:24:50.004Z,100001
2017-06-30T19:27:18.221Z,100003
2017-06-30T19:29:46.400Z,99999
2017-06-30T19:32:14.583Z,100007
2017-06-30T19:34:43.575Z,100001
2017-06-30T19:37:11.760Z,100001
2017-06-30T19:39:40.708Z,100008
2017-06-30T19:42:08.935Z,100007
2017-06-30T19:44:37.125Z,100009
2017-06-30T19:47:05.364Z,100009
2017-06-30T19:49:33.563Z,100015
2017-06-30T19:52:01.735Z,100007
2017-06-30T19:54:29.980Z,100017
2017-06-30T19:56:58.189Z,100019
2017-06-30T19:59:26.416Z,100024
2017-06-30T20:01:54.583Z,100018
2017-06-30T20:04:22.799Z,100023
2017-06-30T20:06:51.033Z,100015
2017-06-30T20:09:19.297Z,100027
2017-06-30T20:11:47.544Z,100015
2017-06-30T20:14:15.776Z,100017
2017-06-30T20:16:43.963Z,100019
2017-06-30T20:19:12.189Z,100026
2017-06-30T20:21:40.391Z,100032
2017-06-30T20:24:08.611Z,100033
2017-06-30T20:26:36.829Z,100030
2017-06-30T20:29:05.036Z,100020
2017-06-30T20:31:33.208Z,100023
2017-06-30T20:34:01.457Z,100036
2017-06-30T20:36:29.711Z,100037
2017-06-30T20:38:57.958Z,100029
2017-06-30T20:41:26.187Z,100031
2017-06-30T20:43:54.417Z,100033
2017-06-30T20:46:22.627Z,100035
2017-06-30T20:48:50.856Z,100029
2017-06-30T20:51:19.084Z,100025
2017-06-30T20:53:47.291Z,100023
2017-06-30T20:56:15.505Z,100023
2017-06-30T20:58:44.486Z,100027
2017-06-30T21:01:12.900Z,100020
2017-06-30T21:03:41.177Z,100022
2017-06-30T21:06:10.124Z,100020
2017-06-30T21:08:38.354Z,100019
2017-06-30T21:11:07.343Z,100026
2017-06-30T21:13:36.360Z,100018
2017-06-30T21:16:04.589Z,100020
2017-06-30T21:18:32.789Z,100021
2017-06-30T21:21:01.781Z,100024
2017-06-30T21:23:30.764Z,100017
2017-06-30T21:25:58.973Z,100016
2017-06-30T21:28:27.223Z,100023
2017-06-30T21:30:56.211Z,100019
2017-06-30T21:33:24.411Z,100018
2017-06-30T21:35:53.369Z,100024
2017-06-30T21:38:21.544Z,100017
2017-06-30T21:40:49.771Z,100016
2017-06-30T21:43:17.954Z,100017
2017-06-30T21:45:46.159Z,100014
2017-06-30T21:48:14.379Z,100017
2017-06-30T21:50:42.642Z,100015
2017-06-30T21:53:11.627Z,100003
2017-06-30T21:55:39.838Z,100004
2017-06-30T21:58:08.047Z,99997
2017-06-30T22:00:36.249Z,100004
2017-06-30T22:03:04.440Z,99997
2017-06-30T22:05:33.388Z,99998
2017-06-30T22:08:01.626Z,99995
2017-06-30T22:10:29.808Z,100000
2017-06-30T22:12:58.044Z,100002
2017-06-30T22:15:26.270Z,99994
2017-06-30T22:17:54.444Z,99999
2017-06-30T22:20:22.647Z,99997
2017-06-30T22:22:50.847Z,99997
2017-06-30T22:25:19.016Z,99998
2017-06-30T22:27:47.198Z,99995
2017-06-30T22:30:15.405Z,100005
2017-06-30T22:32:43.595Z,99999
2017-06-30T22:35:11.769Z,99993
2017-06-30T22:37:40.014Z,99992
2017-06-30T22:40:08.975Z,100002
2017-06-30T22:42:37.175Z,99988
2017-06-30T22:45:06.171Z,99989
2017-06-30T22:47:34.363Z,99994
2017-06-30T22:50:02.547Z,99987
2017-06-30T22:52:30.802Z,99992
2017-06-30T22:54:59.779Z,99980
2017-06-30T22:57:27.971Z,99979
2017-06-30T22:59:56.955Z,99968
2017-06-30T23:02:25.161Z,99968
2017-06-30T23:04:53.346Z,99973
2017-06-30T23:07:21.616Z,99966
2017-06-30T23:09:49.815Z,99967
2017-06-30T23:12:18.007Z,99977
2017-06-30T23:14:46.236Z,99983
2017-06-30T23:17:14.432Z,99992
2017-06-30T23:19:42.627Z,99990
2017-06-30T23:22:10.840Z,99995
2017-06-30T23:24:39.804Z,99990
2017-06-30T23:27:08.016Z,99986
2017-06-30T23:29:37.018Z,99986
2017-06-30T23:32:05.229Z,99989
2017-06-30T23:34:33.419Z,99990
2017-06-30T23:37:01.673Z,99988
2017-06-30T23:39:29.859Z,99986
2017-06-30T23:41:58.078Z,99991
2017-06-30T23:44:27.087Z,99990
2017-06-30T23:46:55.264Z,99984
2017-06-30T23:49:23.465Z,99982
2017-06-30T23:51:51.700Z,99988
2017-06-30T23:54:20.675Z,99985
2017-06-30T23:56:48.885Z,99992
2017-06-30T23:59:17.087Z,99993
